sensor_id;sensor_type;location;lat;lon;timestamp;temperature;humidity
12853;DHT22;6495;51.808;7.478;2023-04-12T00:01:32;9.20;99.90
12853;DHT22;6495;51.808;7.478;2023-04-12T00:04:20;9.20;99.90
12853;DHT22;6495;51.808;7.478;2023-04-12T00:07:14;9.20;99.90
12853;DHT22;6495;51.808;7.478;2023-04-12T00:10:05;9.20;99.90
12853;DHT22;6495;51.808;7.478;2023-04-12T00:12:55;9.20;99.90
12853;DHT22;6495;51.808;7.478;2023-04-12T00:15:44;9.20;99.90
12853;DHT22;6495;51.808;7.478;2023-04-12T00:18:32;9.20;99.90
12853;DHT22;6495;51.808;7.478;2023-04-12T00:21:20;9.20;99.90
12853;DHT22;6495;51.808;7.478;2023-04-12T00:24:11;9.20;99.90
12853;DHT22;6495;51.808;7.478;2023-04-12T00:26:59;9.10;99.90
12853;DHT22;6495;51.808;7.478;2023-04-12T00:29:48;9.10;99.90
12853;DHT22;6495;51.808;7.478;2023-04-12T00:32:36;9.10;99.90
12853;DHT22;6495;51.808;7.478;2023-04-12T00:35:25;9.10;99.90
12853;DHT22;6495;51.808;7.478;2023-04-12T00:38:13;9.10;99.90
12853;DHT22;6495;51.808;7.478;2023-04-12T00:41:05;9.10;99.90
12853;DHT22;6495;51.808;7.478;2023-04-12T00:43:53;9.10;99.90
12853;DHT22;6495;51.808;7.478;2023-04-12T00:46:43;9.10;99.90
12853;DHT22;6495;51.808;7.478;2023-04-12T00:49:33;9.10;99.90
12853;DHT22;6495;51.808;7.478;2023-04-12T00:52:21;9.10;99.90
12853;DHT22;6495;51.808;7.478;2023-04-12T00:55:10;9.10;99.90
12853;DHT22;6495;51.808;7.478;2023-04-12T00:58:00;9.10;99.90
12853;DHT22;6495;51.808;7.478;2023-04-12T01:00:49;9.10;99.90
12853;DHT22;6495;51.808;7.478;2023-04-12T01:03:39;9.10;99.90
12853;DHT22;6495;51.808;7.478;2023-04-12T01:06:40;9.20;99.90
12853;DHT22;6495;51.808;7.478;2023-04-12T01:09:44;9.10;99.90
12853;DHT22;6495;51.808;7.478;2023-04-12T01:12:44;9.10;99.90
12853;DHT22;6495;51.808;7.478;2023-04-12T01:15:48;9.10;99.90
12853;DHT22;6495;51.808;7.478;2023-04-12T01:18:45;9.20;99.90
12853;DHT22;6495;51.808;7.478;2023-04-12T01:21:44;9.20;99.90
12853;DHT22;6495;51.808;7.478;2023-04-12T01:24:50;9.20;99.90
12853;DHT22;6495;51.808;7.478;2023-04-12T01:27:54;9.10;99.90
12853;DHT22;6495;51.808;7.478;2023-04-12T01:30:45;9.20;99.90
12853;DHT22;6495;51.808;7.478;2023-04-12T01:33:42;9.20;99.90
12853;DHT22;6495;51.808;7.478;2023-04-12T01:36:37;9.20;99.90
12853;DHT22;6495;51.808;7.478;2023-04-12T01:39:26;9.20;99.90
12853;DHT22;6495;51.808;7.478;2023-04-12T01:42:18;9.20;99.90
12853;DHT22;6495;51.808;7.478;2023-04-12T01:45:09;9.30;99.90
12853;DHT22;6495;51.808;7.478;2023-04-12T01:47:58;9.30;99.90
12853;DHT22;6495;51.808;7.478;2023-04-12T01:50:53;9.30;99.90
12853;DHT22;6495;51.808;7.478;2023-04-12T01:53:56;9.30;99.90
12853;DHT22;6495;51.808;7.478;2023-04-12T01:56:51;9.40;99.90
12853;DHT22;6495;51.808;7.478;2023-04-12T01:59:44;9.40;99.90
12853;DHT22;6495;51.808;7.478;2023-04-12T02:02:36;9.40;99.90
12853;DHT22;6495;51.808;7.478;2023-04-12T02:05:26;9.50;99.90
12853;DHT22;6495;51.808;7.478;2023-04-12T02:08:15;9.50;99.90
12853;DHT22;6495;51.808;7.478;2023-04-12T02:11:07;9.50;99.90
12853;DHT22;6495;51.808;7.478;2023-04-12T02:13:56;9.50;99.90
12853;DHT22;6495;51.808;7.478;2023-04-12T02:16:46;9.50;99.90
12853;DHT22;6495;51.808;7.478;2023-04-12T02:19:38;9.50;99.90
12853;DHT22;6495;51.808;7.478;2023-04-12T02:22:26;9.50;99.90
12853;DHT22;6495;51.808;7.478;2023-04-12T02:25:15;9.50;99.90
12853;DHT22;6495;51.808;7.478;2023-04-12T02:28:04;9.50;99.90
12853;DHT22;6495;51.808;7.478;2023-04-12T02:30:54;9.50;99.90
12853;DHT22;6495;51.808;7.478;2023-04-12T02:33:43;9.40;99.90
12853;DHT22;6495;51.808;7.478;2023-04-12T02:36:33;9.50;99.90
12853;DHT22;6495;51.808;7.478;2023-04-12T02:39:24;9.40;99.90
12853;DHT22;6495;51.808;7.478;2023-04-12T02:42:16;9.40;99.90
12853;DHT22;6495;51.808;7.478;2023-04-12T02:45:08;9.40;99.90
12853;DHT22;6495;51.808;7.478;2023-04-12T02:47:59;9.40;99.90
12853;DHT22;6495;51.808;7.478;2023-04-12T02:50:49;9.40;99.90
12853;DHT22;6495;51.808;7.478;2023-04-12T02:53:42;9.40;99.90
12853;DHT22;6495;51.808;7.478;2023-04-12T02:56:35;9.40;99.90
12853;DHT22;6495;51.808;7.478;2023-04-12T02:59:38;9.30;99.90
12853;DHT22;6495;51.808;7.478;2023-04-12T03:02:53;9.30;99.90
12853;DHT22;6495;51.808;7.478;2023-04-12T03:05:45;9.30;99.90
12853;DHT22;6495;51.808;7.478;2023-04-12T03:08:36;9.30;99.90
12853;DHT22;6495;51.808;7.478;2023-04-12T03:11:26;9.30;99.90
12853;DHT22;6495;51.808;7.478;2023-04-12T03:14:15;9.30;99.90
12853;DHT22;6495;51.808;7.478;2023-04-12T03:17:04;9.30;99.90
12853;DHT22;6495;51.808;7.478;2023-04-12T03:19:54;9.20;99.90
12853;DHT22;6495;51.808;7.478;2023-04-12T03:22:45;9.20;99.90
12853;DHT22;6495;51.808;7.478;2023-04-12T03:25:33;9.20;99.90
12853;DHT22;6495;51.808;7.478;2023-04-12T03:28:40;9.10;99.90
12853;DHT22;6495;51.808;7.478;2023-04-12T03:31:31;9.10;99.90
12853;DHT22;6495;51.808;7.478;2023-04-12T03:34:24;9.10;99.90
12853;DHT22;6495;51.808;7.478;2023-04-12T03:37:14;9.10;99.90
12853;DHT22;6495;51.808;7.478;2023-04-12T03:40:03;9.10;99.90
12853;DHT22;6495;51.808;7.478;2023-04-12T03:42:53;9.00;99.90
12853;DHT22;6495;51.808;7.478;2023-04-12T03:45:43;9.00;99.90
12853;DHT22;6495;51.808;7.478;2023-04-12T03:48:31;9.00;99.90
12853;DHT22;6495;51.808;7.478;2023-04-12T03:51:20;9.00;99.90
12853;DHT22;6495;51.808;7.478;2023-04-12T03:54:17;9.00;99.90
12853;DHT22;6495;51.808;7.478;2023-04-12T03:57:15;9.00;99.90
12853;DHT22;6495;51.808;7.478;2023-04-12T04:00:08;8.90;99.90
12853;DHT22;6495;51.808;7.478;2023-04-12T04:03:17;8.90;99.90
12853;DHT22;6495;51.808;7.478;2023-04-12T04:06:18;8.90;99.90
12853;DHT22;6495;51.808;7.478;2023-04-12T04:09:06;8.90;99.90
12853;DHT22;6495;51.808;7.478;2023-04-12T04:11:57;8.90;99.90
12853;DHT22;6495;51.808;7.478;2023-04-12T04:14:45;8.90;99.90
12853;DHT22;6495;51.808;7.478;2023-04-12T04:17:44;8.80;99.90
12853;DHT22;6495;51.808;7.478;2023-04-12T04:20:37;8.90;99.90
12853;DHT22;6495;51.808;7.478;2023-04-12T04:23:26;8.80;99.90
12853;DHT22;6495;51.808;7.478;2023-04-12T04:26:19;8.80;99.90
12853;DHT22;6495;51.808;7.478;2023-04-12T04:29:26;8.80;99.90
12853;DHT22;6495;51.808;7.478;2023-04-12T04:32:16;8.80;99.90
12853;DHT22;6495;51.808;7.478;2023-04-12T04:35:06;8.80;99.90
12853;DHT22;6495;51.808;7.478;2023-04-12T04:38:09;8.80;99.90
12853;DHT22;6495;51.808;7.478;2023-04-12T04:40:58;8.80;99.90
12853;DHT22;6495;51.808;7.478;2023-04-12T04:44:02;8.80;99.90
12853;DHT22;6495;51.808;7.478;2023-04-12T04:46:57;8.80;99.90
12853;DHT22;6495;51.808;7.478;2023-04-12T04:49:46;8.70;99.90
12853;DHT22;6495;51.808;7.478;2023-04-12T04:52:44;8.70;99.90
12853;DHT22;6495;51.808;7.478;2023-04-12T04:55:35;8.70;99.90
12853;DHT22;6495;51.808;7.478;2023-04-12T04:58:24;8.70;99.90
12853;DHT22;6495;51.808;7.478;2023-04-12T05:01:12;8.70;99.90
12853;DHT22;6495;51.808;7.478;2023-04-12T05:04:05;8.70;99.90
12853;DHT22;6495;51.808;7.478;2023-04-12T05:06:53;8.70;99.90
12853;DHT22;6495;51.808;7.478;2023-04-12T05:09:45;8.70;99.90
12853;DHT22;6495;51.808;7.478;2023-04-12T05:12:35;8.70;99.90
12853;DHT22;6495;51.808;7.478;2023-04-12T05:15:23;8.60;99.90
12853;DHT22;6495;51.808;7.478;2023-04-12T05:18:12;8.60;99.90
12853;DHT22;6495;51.808;7.478;2023-04-12T05:21:02;8.60;99.90
12853;DHT22;6495;51.808;7.478;2023-04-12T05:23:51;8.60;99.90
12853;DHT22;6495;51.808;7.478;2023-04-12T05:26:40;8.60;99.90
12853;DHT22;6495;51.808;7.478;2023-04-12T05:29:34;8.60;99.90
12853;DHT22;6495;51.808;7.478;2023-04-12T05:32:24;8.60;99.90
12853;DHT22;6495;51.808;7.478;2023-04-12T05:35:14;8.60;99.90
12853;DHT22;6495;51.808;7.478;2023-04-12T05:38:03;8.60;99.90
12853;DHT22;6495;51.808;7.478;2023-04-12T05:40:52;8.60;99.90
12853;DHT22;6495;51.808;7.478;2023-04-12T05:43:42;8.60;99.90
12853;DHT22;6495;51.808;7.478;2023-04-12T05:46:32;8.60;99.90
12853;DHT22;6495;51.808;7.478;2023-04-12T05:49:23;8.60;99.90
12853;DHT22;6495;51.808;7.478;2023-04-12T05:52:11;8.60;99.90
12853;DHT22;6495;51.808;7.478;2023-04-12T05:55:00;8.60;99.90
12853;DHT22;6495;51.808;7.478;2023-04-12T05:57:49;8.60;99.90
12853;DHT22;6495;51.808;7.478;2023-04-12T06:00:39;8.50;99.90
12853;DHT22;6495;51.808;7.478;2023-04-12T06:03:31;8.50;99.90
12853;DHT22;6495;51.808;7.478;2023-04-12T06:06:27;8.50;99.90
12853;DHT22;6495;51.808;7.478;2023-04-12T06:09:18;8.50;99.90
12853;DHT22;6495;51.808;7.478;2023-04-12T06:12:06;8.50;99.90
12853;DHT22;6495;51.808;7.478;2023-04-12T06:14:55;8.50;99.90
12853;DHT22;6495;51.808;7.478;2023-04-12T06:17:44;8.50;99.90
12853;DHT22;6495;51.808;7.478;2023-04-12T06:20:35;8.50;99.90
12853;DHT22;6495;51.808;7.478;2023-04-12T06:23:25;8.50;99.90
12853;DHT22;6495;51.808;7.478;2023-04-12T06:26:14;8.50;99.90
12853;DHT22;6495;51.808;7.478;2023-04-12T06:29:04;8.50;99.90
12853;DHT22;6495;51.808;7.478;2023-04-12T06:31:53;8.50;99.90
12853;DHT22;6495;51.808;7.478;2023-04-12T06:34:42;8.40;99.90
12853;DHT22;6495;51.808;7.478;2023-04-12T06:37:34;8.40;99.90
12853;DHT22;6495;51.808;7.478;2023-04-12T06:40:23;8.40;99.90
12853;DHT22;6495;51.808;7.478;2023-04-12T06:43:11;8.40;99.90
12853;DHT22;6495;51.808;7.478;2023-04-12T06:46:00;8.40;99.90
12853;DHT22;6495;51.808;7.478;2023-04-12T06:48:49;8.40;99.90
12853;DHT22;6495;51.808;7.478;2023-04-12T06:51:37;8.40;99.90
12853;DHT22;6495;51.808;7.478;2023-04-12T06:54:27;8.40;99.90
12853;DHT22;6495;51.808;7.478;2023-04-12T06:57:16;8.40;99.90
12853;DHT22;6495;51.808;7.478;2023-04-12T07:00:05;8.40;99.90
12853;DHT22;6495;51.808;7.478;2023-04-12T07:02:54;8.50;99.90
12853;DHT22;6495;51.808;7.478;2023-04-12T07:05:43;8.50;99.90
12853;DHT22;6495;51.808;7.478;2023-04-12T07:08:34;8.50;99.90
12853;DHT22;6495;51.808;7.478;2023-04-12T07:11:24;8.50;99.90
12853;DHT22;6495;51.808;7.478;2023-04-12T07:14:14;8.50;99.90
12853;DHT22;6495;51.808;7.478;2023-04-12T07:17:02;8.50;99.90
12853;DHT22;6495;51.808;7.478;2023-04-12T07:19:51;8.50;99.90
12853;DHT22;6495;51.808;7.478;2023-04-12T07:22:39;8.50;99.90
12853;DHT22;6495;51.808;7.478;2023-04-12T07:25:28;8.50;99.90
12853;DHT22;6495;51.808;7.478;2023-04-12T07:28:18;8.50;99.90
12853;DHT22;6495;51.808;7.478;2023-04-12T07:31:07;8.60;99.90
12853;DHT22;6495;51.808;7.478;2023-04-12T07:33:55;8.60;99.90
12853;DHT22;6495;51.808;7.478;2023-04-12T07:36:44;8.60;99.90
12853;DHT22;6495;51.808;7.478;2023-04-12T07:39:32;8.60;99.90
12853;DHT22;6495;51.808;7.478;2023-04-12T07:42:22;8.60;99.90
12853;DHT22;6495;51.808;7.478;2023-04-12T07:45:11;8.60;99.90
12853;DHT22;6495;51.808;7.478;2023-04-12T07:48:00;8.70;99.90
12853;DHT22;6495;51.808;7.478;2023-04-12T07:50:49;8.70;99.90
12853;DHT22;6495;51.808;7.478;2023-04-12T07:53:38;8.60;99.90
12853;DHT22;6495;51.808;7.478;2023-04-12T07:56:28;8.70;99.90
12853;DHT22;6495;51.808;7.478;2023-04-12T07:59:16;8.70;99.90
12853;DHT22;6495;51.808;7.478;2023-04-12T08:02:06;8.70;99.90
12853;DHT22;6495;51.808;7.478;2023-04-12T08:04:54;8.70;99.90
12853;DHT22;6495;51.808;7.478;2023-04-12T08:07:43;8.70;99.90
12853;DHT22;6495;51.808;7.478;2023-04-12T08:10:32;8.80;99.90
12853;DHT22;6495;51.808;7.478;2023-04-12T08:13:21;8.80;99.90
12853;DHT22;6495;51.808;7.478;2023-04-12T08:16:10;8.80;99.90
12853;DHT22;6495;51.808;7.478;2023-04-12T08:19:00;8.80;99.90
12853;DHT22;6495;51.808;7.478;2023-04-12T08:21:49;8.90;99.90
12853;DHT22;6495;51.808;7.478;2023-04-12T08:24:37;8.90;99.90
12853;DHT22;6495;51.808;7.478;2023-04-12T08:27:28;9.00;99.90
12853;DHT22;6495;51.808;7.478;2023-04-12T08:30:17;9.00;99.90
12853;DHT22;6495;51.808;7.478;2023-04-12T08:33:06;9.00;99.90
12853;DHT22;6495;51.808;7.478;2023-04-12T08:35:56;9.10;99.90
12853;DHT22;6495;51.808;7.478;2023-04-12T08:38:45;9.10;99.90
12853;DHT22;6495;51.808;7.478;2023-04-12T08:41:38;9.10;99.90
12853;DHT22;6495;51.808;7.478;2023-04-12T08:44:33;9.10;99.90
12853;DHT22;6495;51.808;7.478;2023-04-12T08:47:23;9.10;99.90
12853;DHT22;6495;51.808;7.478;2023-04-12T08:50:12;9.20;99.90
12853;DHT22;6495;51.808;7.478;2023-04-12T08:53:02;9.10;99.90
12853;DHT22;6495;51.808;7.478;2023-04-12T08:55:51;9.10;99.90
12853;DHT22;6495;51.808;7.478;2023-04-12T08:58:41;9.20;99.90
12853;DHT22;6495;51.808;7.478;2023-04-12T09:01:32;9.20;99.90
12853;DHT22;6495;51.808;7.478;2023-04-12T09:04:21;9.20;99.90
12853;DHT22;6495;51.808;7.478;2023-04-12T09:07:10;9.20;99.90
12853;DHT22;6495;51.808;7.478;2023-04-12T09:10:00;9.30;99.90
12853;DHT22;6495;51.808;7.478;2023-04-12T09:12:48;9.30;99.90
12853;DHT22;6495;51.808;7.478;2023-04-12T09:15:47;9.40;99.90
12853;DHT22;6495;51.808;7.478;2023-04-12T09:18:47;9.40;99.90
12853;DHT22;6495;51.808;7.478;2023-04-12T09:21:36;9.40;99.90
12853;DHT22;6495;51.808;7.478;2023-04-12T09:24:45;9.50;99.90
12853;DHT22;6495;51.808;7.478;2023-04-12T09:27:46;9.50;99.90
12853;DHT22;6495;51.808;7.478;2023-04-12T09:30:40;9.50;99.90
12853;DHT22;6495;51.808;7.478;2023-04-12T09:33:33;9.50;99.90
12853;DHT22;6495;51.808;7.478;2023-04-12T09:36:36;9.50;99.90
12853;DHT22;6495;51.808;7.478;2023-04-12T09:39:32;9.50;99.90
12853;DHT22;6495;51.808;7.478;2023-04-12T09:42:21;9.60;99.90
12853;DHT22;6495;51.808;7.478;2023-04-12T09:45:23;9.60;99.90
12853;DHT22;6495;51.808;7.478;2023-04-12T09:48:18;9.60;99.90
12853;DHT22;6495;51.808;7.478;2023-04-12T09:51:08;9.70;99.90
12853;DHT22;6495;51.808;7.478;2023-04-12T09:53:58;9.70;99.90
12853;DHT22;6495;51.808;7.478;2023-04-12T09:56:48;9.70;99.90
12853;DHT22;6495;51.808;7.478;2023-04-12T09:59:39;9.70;99.90
12853;DHT22;6495;51.808;7.478;2023-04-12T10:02:30;9.80;99.90
12853;DHT22;6495;51.808;7.478;2023-04-12T10:05:21;9.80;99.90
12853;DHT22;6495;51.808;7.478;2023-04-12T10:08:13;9.90;99.90
12853;DHT22;6495;51.808;7.478;2023-04-12T10:11:04;9.90;99.90
12853;DHT22;6495;51.808;7.478;2023-04-12T10:13:55;9.90;99.90
12853;DHT22;6495;51.808;7.478;2023-04-12T10:16:47;10.00;99.90
12853;DHT22;6495;51.808;7.478;2023-04-12T10:19:38;10.00;99.90
12853;DHT22;6495;51.808;7.478;2023-04-12T10:22:27;10.10;99.90
12853;DHT22;6495;51.808;7.478;2023-04-12T10:25:18;10.10;99.90
12853;DHT22;6495;51.808;7.478;2023-04-12T10:28:15;10.20;99.90
12853;DHT22;6495;51.808;7.478;2023-04-12T10:31:25;10.20;99.90
12853;DHT22;6495;51.808;7.478;2023-04-12T10:34:15;10.30;99.90
12853;DHT22;6495;51.808;7.478;2023-04-12T10:37:04;10.40;99.90
12853;DHT22;6495;51.808;7.478;2023-04-12T10:39:54;10.50;99.90
12853;DHT22;6495;51.808;7.478;2023-04-12T10:42:42;10.50;99.90
12853;DHT22;6495;51.808;7.478;2023-04-12T10:45:35;10.60;99.90
12853;DHT22;6495;51.808;7.478;2023-04-12T10:48:29;10.70;99.90
12853;DHT22;6495;51.808;7.478;2023-04-12T10:51:19;10.80;99.90
12853;DHT22;6495;51.808;7.478;2023-04-12T10:54:32;10.80;99.90
12853;DHT22;6495;51.808;7.478;2023-04-12T10:57:43;10.90;99.90
12853;DHT22;6495;51.808;7.478;2023-04-12T11:04:15;11.00;99.90
12853;DHT22;6495;51.808;7.478;2023-04-12T11:07:37;11.10;99.90
12853;DHT22;6495;51.808;7.478;2023-04-12T11:11:02;11.10;99.90
12853;DHT22;6495;51.808;7.478;2023-04-12T11:13:57;11.20;99.90
12853;DHT22;6495;51.808;7.478;2023-04-12T11:17:19;11.30;99.90
12853;DHT22;6495;51.808;7.478;2023-04-12T11:20:11;11.40;99.90
12853;DHT22;6495;51.808;7.478;2023-04-12T11:23:01;11.50;99.90
12853;DHT22;6495;51.808;7.478;2023-04-12T11:25:52;11.60;99.90
12853;DHT22;6495;51.808;7.478;2023-04-12T11:28:42;11.70;99.90
12853;DHT22;6495;51.808;7.478;2023-04-12T11:31:30;11.70;99.90
12853;DHT22;6495;51.808;7.478;2023-04-12T11:34:19;11.80;99.90
12853;DHT22;6495;51.808;7.478;2023-04-12T11:37:08;11.80;99.90
12853;DHT22;6495;51.808;7.478;2023-04-12T11:39:57;11.90;99.90
12853;DHT22;6495;51.808;7.478;2023-04-12T11:42:46;11.90;99.90
12853;DHT22;6495;51.808;7.478;2023-04-12T11:45:36;12.00;99.90
12853;DHT22;6495;51.808;7.478;2023-04-12T11:48:26;12.00;99.90
12853;DHT22;6495;51.808;7.478;2023-04-12T11:51:18;12.10;99.90
12853;DHT22;6495;51.808;7.478;2023-04-12T11:54:09;12.10;99.90
12853;DHT22;6495;51.808;7.478;2023-04-12T11:56:58;12.00;99.90
12853;DHT22;6495;51.808;7.478;2023-04-12T11:59:51;11.90;99.90
12853;DHT22;6495;51.808;7.478;2023-04-12T12:02:41;11.80;99.90
12853;DHT22;6495;51.808;7.478;2023-04-12T12:05:50;11.70;99.90
12853;DHT22;6495;51.808;7.478;2023-04-12T12:08:39;11.60;99.90
12853;DHT22;6495;51.808;7.478;2023-04-12T12:11:27;11.50;99.90
12853;DHT22;6495;51.808;7.478;2023-04-12T12:14:21;11.40;99.90
12853;DHT22;6495;51.808;7.478;2023-04-12T12:17:12;11.30;99.90
12853;DHT22;6495;51.808;7.478;2023-04-12T12:20:05;11.20;99.90
12853;DHT22;6495;51.808;7.478;2023-04-12T12:23:06;11.20;99.90
12853;DHT22;6495;51.808;7.478;2023-04-12T12:25:56;11.20;99.90
12853;DHT22;6495;51.808;7.478;2023-04-12T12:29:03;11.20;99.90
12853;DHT22;6495;51.808;7.478;2023-04-12T12:31:52;11.20;99.90
12853;DHT22;6495;51.808;7.478;2023-04-12T12:34:40;11.30;99.90
12853;DHT22;6495;51.808;7.478;2023-04-12T12:37:30;11.30;99.90
12853;DHT22;6495;51.808;7.478;2023-04-12T12:40:27;11.30;99.90
12853;DHT22;6495;51.808;7.478;2023-04-12T12:43:19;11.40;99.90
12853;DHT22;6495;51.808;7.478;2023-04-12T12:46:07;11.50;99.90
12853;DHT22;6495;51.808;7.478;2023-04-12T12:48:56;11.60;99.90
12853;DHT22;6495;51.808;7.478;2023-04-12T12:51:46;11.70;99.90
12853;DHT22;6495;51.808;7.478;2023-04-12T12:54:35;11.80;99.90
12853;DHT22;6495;51.808;7.478;2023-04-12T12:57:27;11.90;99.90
12853;DHT22;6495;51.808;7.478;2023-04-12T13:00:17;12.00;99.90
12853;DHT22;6495;51.808;7.478;2023-04-12T13:03:07;12.10;99.90
12853;DHT22;6495;51.808;7.478;2023-04-12T13:05:56;12.20;99.90
12853;DHT22;6495;51.808;7.478;2023-04-12T13:08:44;12.30;99.90
12853;DHT22;6495;51.808;7.478;2023-04-12T13:11:34;12.50;99.90
12853;DHT22;6495;51.808;7.478;2023-04-12T13:14:23;12.60;99.90
12853;DHT22;6495;51.808;7.478;2023-04-12T13:17:11;12.70;99.90
12853;DHT22;6495;51.808;7.478;2023-04-12T13:20:00;12.80;99.90
12853;DHT22;6495;51.808;7.478;2023-04-12T13:22:50;12.90;99.90
12853;DHT22;6495;51.808;7.478;2023-04-12T13:25:39;13.00;99.90
12853;DHT22;6495;51.808;7.478;2023-04-12T13:28:28;13.20;99.90
12853;DHT22;6495;51.808;7.478;2023-04-12T13:31:17;13.20;99.90
12853;DHT22;6495;51.808;7.478;2023-04-12T13:34:05;13.30;99.90
12853;DHT22;6495;51.808;7.478;2023-04-12T13:36:54;13.40;99.90
12853;DHT22;6495;51.808;7.478;2023-04-12T13:39:43;13.60;99.90
12853;DHT22;6495;51.808;7.478;2023-04-12T13:42:31;13.70;99.90
12853;DHT22;6495;51.808;7.478;2023-04-12T13:45:22;13.80;99.90
12853;DHT22;6495;51.808;7.478;2023-04-12T13:48:10;14.00;99.90
12853;DHT22;6495;51.808;7.478;2023-04-12T13:50:59;14.10;99.90
12853;DHT22;6495;51.808;7.478;2023-04-12T13:53:47;14.30;99.90
12853;DHT22;6495;51.808;7.478;2023-04-12T13:56:36;14.40;99.90
12853;DHT22;6495;51.808;7.478;2023-04-12T13:59:24;14.60;99.90
12853;DHT22;6495;51.808;7.478;2023-04-12T14:02:14;14.70;99.90
12853;DHT22;6495;51.808;7.478;2023-04-12T14:05:03;14.80;99.90
12853;DHT22;6495;51.808;7.478;2023-04-12T14:07:53;14.90;99.90
12853;DHT22;6495;51.808;7.478;2023-04-12T14:10:42;15.00;99.90
12853;DHT22;6495;51.808;7.478;2023-04-12T14:13:30;15.10;99.90
12853;DHT22;6495;51.808;7.478;2023-04-12T14:16:19;15.20;99.90
12853;DHT22;6495;51.808;7.478;2023-04-12T14:19:09;15.30;99.90
12853;DHT22;6495;51.808;7.478;2023-04-12T14:21:57;15.40;99.90
12853;DHT22;6495;51.808;7.478;2023-04-12T14:24:45;15.40;99.90
12853;DHT22;6495;51.808;7.478;2023-04-12T14:27:36;15.40;99.90
12853;DHT22;6495;51.808;7.478;2023-04-12T14:30:25;15.30;99.90
12853;DHT22;6495;51.808;7.478;2023-04-12T14:33:14;15.30;99.90
12853;DHT22;6495;51.808;7.478;2023-04-12T14:36:04;15.30;99.90
12853;DHT22;6495;51.808;7.478;2023-04-12T14:38:54;15.30;99.90
12853;DHT22;6495;51.808;7.478;2023-04-12T14:41:43;15.20;99.90
12853;DHT22;6495;51.808;7.478;2023-04-12T14:44:35;14.90;99.90
12853;DHT22;6495;51.808;7.478;2023-04-12T14:47:23;14.60;99.90
12853;DHT22;6495;51.808;7.478;2023-04-12T14:50:12;14.30;99.90
12853;DHT22;6495;51.808;7.478;2023-04-12T14:53:03;14.00;99.90
12853;DHT22;6495;51.808;7.478;2023-04-12T14:55:59;13.70;99.90
12853;DHT22;6495;51.808;7.478;2023-04-12T14:58:50;13.50;99.90
12853;DHT22;6495;51.808;7.478;2023-04-12T15:01:40;13.30;99.90
12853;DHT22;6495;51.808;7.478;2023-04-12T15:04:29;13.10;99.90
12853;DHT22;6495;51.808;7.478;2023-04-12T15:07:17;12.90;99.90
12853;DHT22;6495;51.808;7.478;2023-04-12T15:10:08;12.70;99.90
12853;DHT22;6495;51.808;7.478;2023-04-12T15:13:00;12.60;99.90
12853;DHT22;6495;51.808;7.478;2023-04-12T15:15:48;12.40;99.90
12853;DHT22;6495;51.808;7.478;2023-04-12T15:18:38;12.30;99.90
12853;DHT22;6495;51.808;7.478;2023-04-12T15:21:27;12.20;99.90
12853;DHT22;6495;51.808;7.478;2023-04-12T15:24:19;12.10;99.90
12853;DHT22;6495;51.808;7.478;2023-04-12T15:27:09;12.10;99.90
12853;DHT22;6495;51.808;7.478;2023-04-12T15:29:58;12.00;99.90
12853;DHT22;6495;51.808;7.478;2023-04-12T15:32:47;11.90;99.90
12853;DHT22;6495;51.808;7.478;2023-04-12T15:35:36;11.90;99.90
12853;DHT22;6495;51.808;7.478;2023-04-12T15:38:40;11.80;99.90
12853;DHT22;6495;51.808;7.478;2023-04-12T15:41:38;11.80;99.90
12853;DHT22;6495;51.808;7.478;2023-04-12T15:44:30;11.80;99.90
12853;DHT22;6495;51.808;7.478;2023-04-12T15:47:50;11.80;99.90
12853;DHT22;6495;51.808;7.478;2023-04-12T15:50:49;11.70;99.90
12853;DHT22;6495;51.808;7.478;2023-04-12T15:53:41;11.70;99.90
12853;DHT22;6495;51.808;7.478;2023-04-12T16:06:16;11.60;99.90
12853;DHT22;6495;51.808;7.478;2023-04-12T16:14:20;11.50;99.90
12853;DHT22;6495;51.808;7.478;2023-04-12T16:17:11;11.50;99.90
12853;DHT22;6495;51.808;7.478;2023-04-12T16:20:00;11.40;99.90
12853;DHT22;6495;51.808;7.478;2023-04-12T16:22:53;11.40;99.90
12853;DHT22;6495;51.808;7.478;2023-04-12T16:25:43;11.40;99.90
12853;DHT22;6495;51.808;7.478;2023-04-12T16:28:32;11.40;99.90
12853;DHT22;6495;51.808;7.478;2023-04-12T16:31:27;11.30;99.90
12853;DHT22;6495;51.808;7.478;2023-04-12T16:34:17;11.40;99.90
12853;DHT22;6495;51.808;7.478;2023-04-12T16:37:11;11.40;99.90
12853;DHT22;6495;51.808;7.478;2023-04-12T16:40:09;11.50;99.90
12853;DHT22;6495;51.808;7.478;2023-04-12T16:43:53;11.60;99.90
12853;DHT22;6495;51.808;7.478;2023-04-12T16:47:07;11.80;99.90
12853;DHT22;6495;51.808;7.478;2023-04-12T16:50:08;11.90;99.90
12853;DHT22;6495;51.808;7.478;2023-04-12T16:53:20;12.00;99.90
12853;DHT22;6495;51.808;7.478;2023-04-12T16:56:21;12.00;99.90
12853;DHT22;6495;51.808;7.478;2023-04-12T16:59:13;12.10;99.90
12853;DHT22;6495;51.808;7.478;2023-04-12T17:02:07;12.10;99.90
12853;DHT22;6495;51.808;7.478;2023-04-12T17:04:57;12.10;99.90
12853;DHT22;6495;51.808;7.478;2023-04-12T17:07:52;12.10;99.90
12853;DHT22;6495;51.808;7.478;2023-04-12T17:10:46;12.10;99.90
12853;DHT22;6495;51.808;7.478;2023-04-12T17:13:37;12.10;99.90
12853;DHT22;6495;51.808;7.478;2023-04-12T17:16:27;12.00;99.90
12853;DHT22;6495;51.808;7.478;2023-04-12T17:19:20;11.90;99.90
12853;DHT22;6495;51.808;7.478;2023-04-12T17:22:09;11.80;99.90
12853;DHT22;6495;51.808;7.478;2023-04-12T17:24:58;11.80;99.90
12853;DHT22;6495;51.808;7.478;2023-04-12T17:27:48;11.60;99.90
12853;DHT22;6495;51.808;7.478;2023-04-12T17:30:38;11.60;99.90
12853;DHT22;6495;51.808;7.478;2023-04-12T17:33:27;11.50;99.90
12853;DHT22;6495;51.808;7.478;2023-04-12T17:36:18;11.50;99.90
12853;DHT22;6495;51.808;7.478;2023-04-12T17:39:08;11.50;99.90
12853;DHT22;6495;51.808;7.478;2023-04-12T17:41:57;11.40;99.90
12853;DHT22;6495;51.808;7.478;2023-04-12T17:44:46;11.40;99.90
12853;DHT22;6495;51.808;7.478;2023-04-12T17:47:36;11.40;99.90
12853;DHT22;6495;51.808;7.478;2023-04-12T17:50:25;11.40;99.90
12853;DHT22;6495;51.808;7.478;2023-04-12T17:53:16;11.40;99.90
12853;DHT22;6495;51.808;7.478;2023-04-12T17:56:05;11.30;99.90
12853;DHT22;6495;51.808;7.478;2023-04-12T18:03:18;11.20;99.90
12853;DHT22;6495;51.808;7.478;2023-04-12T18:06:07;11.30;99.90
12853;DHT22;6495;51.808;7.478;2023-04-12T18:08:57;11.20;99.90
12853;DHT22;6495;51.808;7.478;2023-04-12T18:12:08;11.20;99.90
12853;DHT22;6495;51.808;7.478;2023-04-12T18:15:52;11.20;99.90
12853;DHT22;6495;51.808;7.478;2023-04-12T18:18:41;11.20;99.90
12853;DHT22;6495;51.808;7.478;2023-04-12T18:21:30;11.20;99.90
12853;DHT22;6495;51.808;7.478;2023-04-12T18:24:21;11.10;99.90
12853;DHT22;6495;51.808;7.478;2023-04-12T18:27:11;11.10;99.90
12853;DHT22;6495;51.808;7.478;2023-04-12T18:30:00;11.00;99.90
12853;DHT22;6495;51.808;7.478;2023-04-12T18:32:49;11.00;99.90
12853;DHT22;6495;51.808;7.478;2023-04-12T18:35:39;10.90;99.90
12853;DHT22;6495;51.808;7.478;2023-04-12T18:38:32;10.90;99.90
12853;DHT22;6495;51.808;7.478;2023-04-12T18:41:23;10.80;99.90
12853;DHT22;6495;51.808;7.478;2023-04-12T18:44:12;10.80;99.90
12853;DHT22;6495;51.808;7.478;2023-04-12T18:47:01;10.70;99.90
12853;DHT22;6495;51.808;7.478;2023-04-12T18:49:51;10.70;99.90
12853;DHT22;6495;51.808;7.478;2023-04-12T18:52:40;10.60;99.90
12853;DHT22;6495;51.808;7.478;2023-04-12T18:55:28;10.50;99.90
12853;DHT22;6495;51.808;7.478;2023-04-12T18:58:19;10.40;99.90